sensor_id;sensor_type;location;lat;lon;timestamp;pressure;altitude;pressure_sealevel;temperature;humidity
63493;BME280;49638;47.526;10.028;2023-04-19T00:02:49;91878.44;;;5.38;87.28
63493;BME280;49638;47.526;10.028;2023-04-19T00:05:49;91875.94;;;5.50;87.57
63493;BME280;49638;47.526;10.028;2023-04-19T00:08:52;91875.72;;;5.58;87.54
63493;BME280;49638;47.526;10.028;2023-04-19T00:11:53;91863.59;;;5.64;87.38
63493;BME280;49638;47.526;10.028;2023-04-19T00:14:53;91866.00;;;5.65;87.00
63493;BME280;49638;47.526;10.028;2023-04-19T00:17:53;91840.66;;;5.53;86.81
63493;BME280;49638;47.526;10.028;2023-04-19T00:20:53;91852.50;;;5.62;86.55
63493;BME280;49638;47.526;10.028;2023-04-19T00:23:53;91852.34;;;5.50;86.47
63493;BME280;49638;47.526;10.028;2023-04-19T00:26:54;91870.13;;;5.48;86.42
63493;BME280;49638;47.526;10.028;2023-04-19T00:29:54;91853.03;;;5.39;86.53
63493;BME280;49638;47.526;10.028;2023-04-19T00:32:56;91863.31;;;5.40;86.73
63493;BME280;49638;47.526;10.028;2023-04-19T00:35:56;91861.28;;;5.36;86.97
63493;BME280;49638;47.526;10.028;2023-04-19T00:38:56;91860.13;;;5.25;87.14
63493;BME280;49638;47.526;10.028;2023-04-19T00:41:57;91858.13;;;5.27;87.99
63493;BME280;49638;47.526;10.028;2023-04-19T00:44:57;91847.78;;;5.39;88.12
63493;BME280;49638;47.526;10.028;2023-04-19T00:47:58;91856.00;;;5.49;87.99
63493;BME280;49638;47.526;10.028;2023-04-19T00:50:58;91842.69;;;5.51;87.97
63493;BME280;49638;47.526;10.028;2023-04-19T00:53:58;91856.31;;;5.66;88.28
63493;BME280;49638;47.526;10.028;2023-04-19T00:56:59;91853.50;;;5.67;88.45
63493;BME280;49638;47.526;10.028;2023-04-19T01:00:00;91845.75;;;5.79;88.38
63493;BME280;49638;47.526;10.028;2023-04-19T01:03:00;91848.34;;;5.86;88.32
63493;BME280;49638;47.526;10.028;2023-04-19T01:06:01;91846.50;;;5.93;88.45
63493;BME280;49638;47.526;10.028;2023-04-19T01:09:01;91824.50;;;5.87;88.21
63493;BME280;49638;47.526;10.028;2023-04-19T01:12:02;91840.81;;;6.03;88.29
63493;BME280;49638;47.526;10.028;2023-04-19T01:15:02;91826.69;;;5.97;88.22
63493;BME280;49638;47.526;10.028;2023-04-19T01:18:03;91832.09;;;6.09;88.06
63493;BME280;49638;47.526;10.028;2023-04-19T01:21:03;91828.66;;;6.08;87.91
63493;BME280;49638;47.526;10.028;2023-04-19T01:24:05;91820.84;;;6.02;87.77
63493;BME280;49638;47.526;10.028;2023-04-19T01:27:05;91827.63;;;6.09;87.87
63493;BME280;49638;47.526;10.028;2023-04-19T01:30:06;91825.44;;;6.06;87.86
63493;BME280;49638;47.526;10.028;2023-04-19T01:33:07;91825.00;;;6.09;87.65
63493;BME280;49638;47.526;10.028;2023-04-19T01:36:07;91814.34;;;6.04;87.77
63493;BME280;49638;47.526;10.028;2023-04-19T01:39:07;91823.63;;;6.07;88.10
63493;BME280;49638;47.526;10.028;2023-04-19T01:42:07;91815.38;;;6.03;87.85
63493;BME280;49638;47.526;10.028;2023-04-19T01:45:08;91813.81;;;5.96;87.97
63493;BME280;49638;47.526;10.028;2023-04-19T01:48:09;91806.75;;;5.89;88.16
63493;BME280;49638;47.526;10.028;2023-04-19T01:51:09;91803.34;;;5.89;88.20
63493;BME280;49638;47.526;10.028;2023-04-19T01:54:09;91814.38;;;5.98;87.97
63493;BME280;49638;47.526;10.028;2023-04-19T01:57:09;91811.75;;;5.98;88.01
63493;BME280;49638;47.526;10.028;2023-04-19T02:00:10;91809.00;;;5.92;87.96
63493;BME280;49638;47.526;10.028;2023-04-19T02:03:11;91811.38;;;5.94;88.46
63493;BME280;49638;47.526;10.028;2023-04-19T02:06:12;91818.41;;;6.00;88.35
63493;BME280;49638;47.526;10.028;2023-04-19T02:09:12;91806.47;;;6.04;88.61
63493;BME280;49638;47.526;10.028;2023-04-19T02:12:12;91809.31;;;6.03;88.51
63493;BME280;49638;47.526;10.028;2023-04-19T02:15:13;91797.44;;;6.00;88.49
63493;BME280;49638;47.526;10.028;2023-04-19T02:18:13;91813.06;;;6.13;88.43
63493;BME280;49638;47.526;10.028;2023-04-19T02:21:13;91791.31;;;6.06;88.73
63493;BME280;49638;47.526;10.028;2023-04-19T02:24:13;91793.09;;;6.12;88.58
63493;BME280;49638;47.526;10.028;2023-04-19T02:27:14;91796.66;;;6.18;88.63
63493;BME280;49638;47.526;10.028;2023-04-19T02:30:14;91801.13;;;6.18;88.54
63493;BME280;49638;47.526;10.028;2023-04-19T02:33:15;91795.31;;;6.15;88.27
63493;BME280;49638;47.526;10.028;2023-04-19T02:36:15;91797.94;;;6.15;88.27
63493;BME280;49638;47.526;10.028;2023-04-19T02:39:15;91796.31;;;6.14;88.23
63493;BME280;49638;47.526;10.028;2023-04-19T02:42:18;91788.66;;;6.13;88.18
63493;BME280;49638;47.526;10.028;2023-04-19T02:45:18;91795.69;;;6.19;88.16
63493;BME280;49638;47.526;10.028;2023-04-19T02:48:19;91795.31;;;6.15;88.07
63493;BME280;49638;47.526;10.028;2023-04-19T02:51:19;91793.91;;;6.13;88.17
63493;BME280;49638;47.526;10.028;2023-04-19T02:54:19;91783.94;;;5.97;88.31
63493;BME280;49638;47.526;10.028;2023-04-19T02:57:20;91787.19;;;5.92;88.01
63493;BME280;49638;47.526;10.028;2023-04-19T03:00:20;91787.38;;;5.90;88.02
63493;BME280;49638;47.526;10.028;2023-04-19T03:03:20;91781.59;;;5.82;87.75
63493;BME280;49638;47.526;10.028;2023-04-19T03:06:21;91783.88;;;5.72;87.36
63493;BME280;49638;47.526;10.028;2023-04-19T03:09:21;91767.25;;;5.53;87.45
63493;BME280;49638;47.526;10.028;2023-04-19T03:12:21;91777.75;;;5.53;87.26
63493;BME280;49638;47.526;10.028;2023-04-19T03:15:21;91779.84;;;5.37;87.72
63493;BME280;49638;47.526;10.028;2023-04-19T03:18:22;91791.97;;;5.32;87.91
63493;BME280;49638;47.526;10.028;2023-04-19T03:21:22;91781.94;;;5.22;88.18
63493;BME280;49638;47.526;10.028;2023-04-19T03:24:29;91779.38;;;5.09;89.68
63493;BME280;49638;47.526;10.028;2023-04-19T03:27:29;91787.44;;;5.07;88.47
63493;BME280;49638;47.526;10.028;2023-04-19T03:30:30;91777.16;;;5.06;88.54
63493;BME280;49638;47.526;10.028;2023-04-19T03:33:30;91773.75;;;5.05;88.85
63493;BME280;49638;47.526;10.028;2023-04-19T03:36:30;91781.59;;;5.12;88.88
63493;BME280;49638;47.526;10.028;2023-04-19T03:39:31;91778.00;;;5.06;88.95
63493;BME280;49638;47.526;10.028;2023-04-19T03:42:31;91768.34;;;5.00;89.42
63493;BME280;49638;47.526;10.028;2023-04-19T03:45:31;91767.09;;;5.03;89.74
63493;BME280;49638;47.526;10.028;2023-04-19T03:48:32;91762.28;;;5.06;89.61
63493;BME280;49638;47.526;10.028;2023-04-19T03:51:32;91777.69;;;5.28;89.82
63493;BME280;49638;47.526;10.028;2023-04-19T03:54:32;91784.72;;;5.34;89.92
63493;BME280;49638;47.526;10.028;2023-04-19T03:57:32;91771.81;;;5.32;89.73
63493;BME280;49638;47.526;10.028;2023-04-19T04:00:35;91769.00;;;5.34;90.02
63493;BME280;49638;47.526;10.028;2023-04-19T04:03:35;91768.34;;;5.38;90.04
63493;BME280;49638;47.526;10.028;2023-04-19T04:06:35;91775.75;;;5.48;90.03
63493;BME280;49638;47.526;10.028;2023-04-19T04:09:36;91769.72;;;5.48;90.16
63493;BME280;49638;47.526;10.028;2023-04-19T04:12:36;91773.28;;;5.53;90.39
63493;BME280;49638;47.526;10.028;2023-04-19T04:15:36;91760.22;;;5.46;90.31
63493;BME280;49638;47.526;10.028;2023-04-19T04:18:36;91776.28;;;5.57;90.29
63493;BME280;49638;47.526;10.028;2023-04-19T04:21:37;91777.69;;;5.59;90.27
63493;BME280;49638;47.526;10.028;2023-04-19T04:24:38;91776.47;;;5.62;89.93
63493;BME280;49638;47.526;10.028;2023-04-19T04:27:41;91769.47;;;5.56;90.07
63493;BME280;49638;47.526;10.028;2023-04-19T04:30:43;91780.50;;;5.64;90.07
63493;BME280;49638;47.526;10.028;2023-04-19T04:33:44;91772.47;;;5.59;90.20
63493;BME280;49638;47.526;10.028;2023-04-19T04:36:45;91780.50;;;5.64;90.17
63493;BME280;49638;47.526;10.028;2023-04-19T04:39:46;91781.09;;;5.66;90.16
63493;BME280;49638;47.526;10.028;2023-04-19T04:42:46;91767.63;;;5.56;90.51
63493;BME280;49638;47.526;10.028;2023-04-19T04:45:47;91778.88;;;5.63;90.89
63493;BME280;49638;47.526;10.028;2023-04-19T04:48:47;91787.13;;;5.67;90.69
63493;BME280;49638;47.526;10.028;2023-04-19T04:51:47;91777.47;;;5.67;90.36
63493;BME280;49638;47.526;10.028;2023-04-19T04:54:48;91783.69;;;5.66;90.28
63493;BME280;49638;47.526;10.028;2023-04-19T04:57:48;91777.69;;;5.59;90.51
63493;BME280;49638;47.526;10.028;2023-04-19T05:00:48;91787.78;;;5.62;90.55
63493;BME280;49638;47.526;10.028;2023-04-19T05:03:49;91793.72;;;5.76;90.65
63493;BME280;49638;47.526;10.028;2023-04-19T05:06:50;91784.47;;;5.74;90.12
63493;BME280;49638;47.526;10.028;2023-04-19T05:09:50;91778.66;;;5.72;90.45
63493;BME280;49638;47.526;10.028;2023-04-19T05:12:50;91786.66;;;5.77;90.67
63493;BME280;49638;47.526;10.028;2023-04-19T05:15:50;91791.25;;;5.88;90.69
63493;BME280;49638;47.526;10.028;2023-04-19T05:18:51;91771.16;;;5.75;90.80
63493;BME280;49638;47.526;10.028;2023-04-19T05:21:51;91804.13;;;5.96;90.26
63493;BME280;49638;47.526;10.028;2023-04-19T05:24:51;91785.97;;;5.95;90.13
63493;BME280;49638;47.526;10.028;2023-04-19T05:27:51;91791.44;;;5.93;90.31
63493;BME280;49638;47.526;10.028;2023-04-19T05:30:52;91795.66;;;5.94;90.38
63493;BME280;49638;47.526;10.028;2023-04-19T05:33:52;91787.59;;;5.89;90.53
63493;BME280;49638;47.526;10.028;2023-04-19T05:36:52;91788.38;;;5.96;90.61
63493;BME280;49638;47.526;10.028;2023-04-19T05:39:53;91798.81;;;6.03;90.61
63493;BME280;49638;47.526;10.028;2023-04-19T05:42:53;91790.69;;;6.11;90.72
63493;BME280;49638;47.526;10.028;2023-04-19T05:45:53;91803.97;;;6.16;90.41
63493;BME280;49638;47.526;10.028;2023-04-19T05:48:53;91805.81;;;6.15;90.31
63493;BME280;49638;47.526;10.028;2023-04-19T05:51:54;91787.09;;;6.05;90.16
63493;BME280;49638;47.526;10.028;2023-04-19T05:54:54;91795.31;;;6.15;89.78
63493;BME280;49638;47.526;10.028;2023-04-19T05:57:54;91795.44;;;6.21;90.03
63493;BME280;49638;47.526;10.028;2023-04-19T06:00:55;91785.97;;;6.20;89.74
63493;BME280;49638;47.526;10.028;2023-04-19T06:03:55;91797.41;;;6.32;89.79
63493;BME280;49638;47.526;10.028;2023-04-19T06:06:55;91801.19;;;6.36;90.01
63493;BME280;49638;47.526;10.028;2023-04-19T06:09:56;91797.72;;;6.42;90.11
63493;BME280;49638;47.526;10.028;2023-04-19T06:12:56;91786.19;;;6.43;90.06
63493;BME280;49638;47.526;10.028;2023-04-19T06:15:56;91797.13;;;6.58;90.02
63493;BME280;49638;47.526;10.028;2023-04-19T06:18:56;91791.00;;;6.64;89.81
63493;BME280;49638;47.526;10.028;2023-04-19T06:21:57;91800.44;;;6.72;89.75
63493;BME280;49638;47.526;10.028;2023-04-19T06:24:57;91792.13;;;6.75;89.69
63493;BME280;49638;47.526;10.028;2023-04-19T06:27:57;91800.88;;;6.87;89.69
63493;BME280;49638;47.526;10.028;2023-04-19T06:30:58;91790.59;;;6.86;89.67
63493;BME280;49638;47.526;10.028;2023-04-19T06:33:58;91804.47;;;6.93;89.55
63493;BME280;49638;47.526;10.028;2023-04-19T06:36:58;91787.69;;;6.94;89.34
63493;BME280;49638;47.526;10.028;2023-04-19T06:39:59;91800.31;;;7.04;89.34
63493;BME280;49638;47.526;10.028;2023-04-19T06:42:59;91805.13;;;7.07;89.18
63493;BME280;49638;47.526;10.028;2023-04-19T06:46:01;91801.13;;;7.04;89.11
63493;BME280;49638;47.526;10.028;2023-04-19T06:49:01;91811.56;;;7.11;89.06
63493;BME280;49638;47.526;10.028;2023-04-19T06:52:02;91817.38;;;7.13;88.99
63493;BME280;49638;47.526;10.028;2023-04-19T06:55:02;91803.00;;;7.16;88.90
63493;BME280;49638;47.526;10.028;2023-04-19T06:58:02;91786.59;;;7.02;89.13
63493;BME280;49638;47.526;10.028;2023-04-19T07:01:03;91798.91;;;7.20;89.07
63493;BME280;49638;47.526;10.028;2023-04-19T07:04:03;91811.03;;;7.21;88.92
63493;BME280;49638;47.526;10.028;2023-04-19T07:07:03;91799.72;;;7.20;88.89
63493;BME280;49638;47.526;10.028;2023-04-19T07:10:04;91808.09;;;7.29;88.97
63493;BME280;49638;47.526;10.028;2023-04-19T07:13:04;91803.19;;;7.32;88.89
63493;BME280;49638;47.526;10.028;2023-04-19T07:16:05;91804.72;;;7.40;89.00
63493;BME280;49638;47.526;10.028;2023-04-19T07:19:06;91795.22;;;7.39;88.73
63493;BME280;49638;47.526;10.028;2023-04-19T07:22:06;91796.03;;;7.40;88.44
63493;BME280;49638;47.526;10.028;2023-04-19T07:25:07;91801.94;;;7.53;88.16
63493;BME280;49638;47.526;10.028;2023-04-19T07:28:07;91802.72;;;7.54;88.02
63493;BME280;49638;47.526;10.028;2023-04-19T07:31:13;91803.22;;;7.63;88.13
63493;BME280;49638;47.526;10.028;2023-04-19T07:34:14;91789.97;;;7.57;88.19
63493;BME280;49638;47.526;10.028;2023-04-19T07:37:14;91789.03;;;7.64;87.88
63493;BME280;49638;47.526;10.028;2023-04-19T07:40:15;91801.66;;;7.73;87.86
63493;BME280;49638;47.526;10.028;2023-04-19T07:43:15;91799.28;;;7.72;87.79
63493;BME280;49638;47.526;10.028;2023-04-19T07:46:15;91796.28;;;7.68;87.77
63493;BME280;49638;47.526;10.028;2023-04-19T07:49:16;91795.16;;;7.76;87.62
63493;BME280;49638;47.526;10.028;2023-04-19T07:52:16;91789.75;;;7.71;87.53
63493;BME280;49638;47.526;10.028;2023-04-19T07:55:17;91797.91;;;7.81;87.35
63493;BME280;49638;47.526;10.028;2023-04-19T07:58:18;91789.66;;;7.77;87.34
63493;BME280;49638;47.526;10.028;2023-04-19T08:01:18;91788.88;;;7.77;87.10
63493;BME280;49638;47.526;10.028;2023-04-19T08:04:18;91791.19;;;7.85;87.13
63493;BME280;49638;47.526;10.028;2023-04-19T08:07:19;91791.19;;;7.85;86.85
63493;BME280;49638;47.526;10.028;2023-04-19T08:10:20;91794.53;;;7.92;86.78
63493;BME280;49638;47.526;10.028;2023-04-19T08:13:20;91783.75;;;7.94;86.78
63493;BME280;49638;47.526;10.028;2023-04-19T08:16:21;91793.06;;;8.08;86.52
63493;BME280;49638;47.526;10.028;2023-04-19T08:19:22;91784.94;;;8.10;86.57
63493;BME280;49638;47.526;10.028;2023-04-19T08:22:22;91787.84;;;8.20;86.47
63493;BME280;49638;47.526;10.028;2023-04-19T08:25:22;91778.91;;;8.21;86.11
63493;BME280;49638;47.526;10.028;2023-04-19T08:28:25;91794.94;;;8.31;86.32
63493;BME280;49638;47.526;10.028;2023-04-19T08:31:26;91781.31;;;8.34;86.11
63493;BME280;49638;47.526;10.028;2023-04-19T08:34:27;91783.31;;;8.50;85.83
63493;BME280;49638;47.526;10.028;2023-04-19T08:37:27;91790.88;;;8.59;85.59
63493;BME280;49638;47.526;10.028;2023-04-19T08:40:29;91789.25;;;8.69;85.29
63493;BME280;49638;47.526;10.028;2023-04-19T08:43:29;91790.88;;;8.82;84.71
63493;BME280;49638;47.526;10.028;2023-04-19T08:46:32;91782.03;;;8.88;84.54
63493;BME280;49638;47.526;10.028;2023-04-19T08:49:38;91788.91;;;9.01;83.10
63493;BME280;49638;47.526;10.028;2023-04-19T08:52:38;91784.66;;;9.12;83.14
63493;BME280;49638;47.526;10.028;2023-04-19T08:55:40;91774.09;;;9.12;82.81
63493;BME280;49638;47.526;10.028;2023-04-19T08:58:40;91775.94;;;9.11;82.74
63493;BME280;49638;47.526;10.028;2023-04-19T09:01:41;91786.69;;;9.21;82.92
63493;BME280;49638;47.526;10.028;2023-04-19T09:04:41;91778.00;;;9.21;82.65
63493;BME280;49638;47.526;10.028;2023-04-19T09:07:42;91772.25;;;9.24;82.82
63493;BME280;49638;47.526;10.028;2023-04-19T09:10:52;91766.47;;;9.27;79.47
63493;BME280;49638;47.526;10.028;2023-04-19T09:14:06;91768.53;;;9.37;79.04
63493;BME280;49638;47.526;10.028;2023-04-19T09:17:11;91771.59;;;9.45;80.13
63493;BME280;49638;47.526;10.028;2023-04-19T09:20:13;91760.47;;;9.43;80.92
63493;BME280;49638;47.526;10.028;2023-04-19T09:23:16;91768.50;;;9.48;80.44
63493;BME280;49638;47.526;10.028;2023-04-19T09:26:16;91757.38;;;9.46;80.85
63493;BME280;49638;47.526;10.028;2023-04-19T09:29:16;91762.91;;;9.45;80.72
63493;BME280;49638;47.526;10.028;2023-04-19T09:32:16;91759.22;;;9.46;80.31
63493;BME280;49638;47.526;10.028;2023-04-19T09:35:17;91753.34;;;9.44;79.72
63493;BME280;49638;47.526;10.028;2023-04-19T09:38:17;91750.50;;;9.45;79.49
63493;BME280;49638;47.526;10.028;2023-04-19T09:41:17;91743.31;;;9.41;79.38
63493;BME280;49638;47.526;10.028;2023-04-19T09:44:18;91753.59;;;9.42;79.52
63493;BME280;49638;47.526;10.028;2023-04-19T09:47:26;91745.13;;;9.40;77.94
63493;BME280;49638;47.526;10.028;2023-04-19T09:50:28;91737.66;;;9.37;79.49
63493;BME280;49638;47.526;10.028;2023-04-19T09:53:30;91741.47;;;9.41;79.48
63493;BME280;49638;47.526;10.028;2023-04-19T09:56:35;91741.94;;;9.38;79.27
63493;BME280;49638;47.526;10.028;2023-04-19T09:59:35;91740.31;;;9.37;79.59
63493;BME280;49638;47.526;10.028;2023-04-19T10:02:36;91733.31;;;9.43;79.38
63493;BME280;49638;47.526;10.028;2023-04-19T10:05:38;91728.34;;;9.46;79.28
63493;BME280;49638;47.526;10.028;2023-04-19T10:08:40;91721.94;;;9.42;78.87
63493;BME280;49638;47.526;10.028;2023-04-19T10:11:42;91734.75;;;9.51;78.71
63493;BME280;49638;47.526;10.028;2023-04-19T10:14:46;91715.16;;;9.46;78.93
63493;BME280;49638;47.526;10.028;2023-04-19T10:17:47;91720.88;;;9.55;78.76
63493;BME280;49638;47.526;10.028;2023-04-19T10:20:56;91723.69;;;9.65;77.82
63493;BME280;49638;47.526;10.028;2023-04-19T10:23:59;91709.69;;;9.65;78.56
63493;BME280;49638;47.526;10.028;2023-04-19T10:27:09;91720.03;;;9.83;76.42
63493;BME280;49638;47.526;10.028;2023-04-19T10:30:21;91720.53;;;9.97;76.05
63493;BME280;49638;47.526;10.028;2023-04-19T10:33:26;91723.19;;;10.14;76.91
63493;BME280;49638;47.526;10.028;2023-04-19T10:36:27;91716.66;;;10.33;77.56
63493;BME280;49638;47.526;10.028;2023-04-19T10:39:43;91706.72;;;10.40;73.77
63493;BME280;49638;47.526;10.028;2023-04-19T10:43:13;91709.50;;;10.51;73.20
63493;BME280;49638;47.526;10.028;2023-04-19T10:49:22;91688.34;;;10.68;75.42
63493;BME280;49638;47.526;10.028;2023-04-19T10:52:26;91695.59;;;10.77;74.11
63493;BME280;49638;47.526;10.028;2023-04-19T10:55:32;91690.38;;;10.82;74.15
63493;BME280;49638;47.526;10.028;2023-04-19T11:02:25;91686.00;;;10.93;71.84
63493;BME280;49638;47.526;10.028;2023-04-19T11:05:27;91683.97;;;11.00;73.66
63493;BME280;49638;47.526;10.028;2023-04-19T11:08:27;91672.41;;;11.06;73.75
63493;BME280;49638;47.526;10.028;2023-04-19T11:11:27;91679.44;;;11.18;74.08
63493;BME280;49638;47.526;10.028;2023-04-19T11:14:31;91673.16;;;11.24;73.99
63493;BME280;49638;47.526;10.028;2023-04-19T11:17:33;91656.78;;;11.27;73.74
63493;BME280;49638;47.526;10.028;2023-04-19T11:20:33;91655.59;;;11.40;73.96
63493;BME280;49638;47.526;10.028;2023-04-19T11:23:33;91669.50;;;11.52;73.57
63493;BME280;49638;47.526;10.028;2023-04-19T11:26:33;91665.00;;;11.52;72.81
63493;BME280;49638;47.526;10.028;2023-04-19T11:29:34;91659.44;;;11.54;72.25
63493;BME280;49638;47.526;10.028;2023-04-19T11:32:35;91661.38;;;11.64;72.60
63493;BME280;49638;47.526;10.028;2023-04-19T11:35:35;91656.09;;;11.64;72.87
63493;BME280;49638;47.526;10.028;2023-04-19T11:38:35;91661.09;;;11.60;71.91
63493;BME280;49638;47.526;10.028;2023-04-19T11:41:37;91650.22;;;11.56;71.53
63493;BME280;49638;47.526;10.028;2023-04-19T11:44:38;91647.25;;;11.53;71.00
63493;BME280;49638;47.526;10.028;2023-04-19T11:47:48;91645.31;;;11.43;68.44
63493;BME280;49638;47.526;10.028;2023-04-19T11:50:49;91635.50;;;11.39;71.29
63493;BME280;49638;47.526;10.028;2023-04-19T11:53:49;91639.16;;;11.37;71.17
63493;BME280;49638;47.526;10.028;2023-04-19T11:57:08;91644.41;;;11.32;69.06
63493;BME280;49638;47.526;10.028;2023-04-19T12:00:09;91638.31;;;11.32;71.68
63493;BME280;49638;47.526;10.028;2023-04-19T12:03:11;91634.59;;;11.28;71.40
63493;BME280;49638;47.526;10.028;2023-04-19T12:06:15;91624.69;;;11.18;71.27
63493;BME280;49638;47.526;10.028;2023-04-19T12:09:15;91634.47;;;11.18;67.71
63493;BME280;49638;47.526;10.028;2023-04-19T12:12:31;91629.00;;;11.02;68.20
63493;BME280;49638;47.526;10.028;2023-04-19T12:15:42;91631.63;;;10.97;69.33
63493;BME280;49638;47.526;10.028;2023-04-19T12:18:44;91625.88;;;10.83;71.08
63493;BME280;49638;47.526;10.028;2023-04-19T12:21:46;91613.28;;;10.69;70.98
63493;BME280;49638;47.526;10.028;2023-04-19T12:24:50;91621.66;;;10.60;70.43
63493;BME280;49638;47.526;10.028;2023-04-19T12:27:50;91627.72;;;10.61;67.93
63493;BME280;49638;47.526;10.028;2023-04-19T12:30:50;91619.19;;;10.54;71.10
63493;BME280;49638;47.526;10.028;2023-04-19T12:33:52;91617.56;;;10.53;71.35
63493;BME280;49638;47.526;10.028;2023-04-19T12:36:52;91624.78;;;10.57;72.05
63493;BME280;49638;47.526;10.028;2023-04-19T12:39:53;91609.09;;;10.51;71.79
63493;BME280;49638;47.526;10.028;2023-04-19T12:42:53;91626.06;;;10.55;71.87
63493;BME280;49638;47.526;10.028;2023-04-19T12:45:53;91616.41;;;10.44;71.74
63493;BME280;49638;47.526;10.028;2023-04-19T12:48:54;91600.25;;;10.40;71.80
63493;BME280;49638;47.526;10.028;2023-04-19T12:51:54;91623.59;;;10.48;71.62
63493;BME280;49638;47.526;10.028;2023-04-19T12:54:54;91602.63;;;10.41;72.08
63493;BME280;49638;47.526;10.028;2023-04-19T12:57:55;91595.28;;;10.44;72.26
63493;BME280;49638;47.526;10.028;2023-04-19T13:00:55;91606.06;;;10.42;71.64
63493;BME280;49638;47.526;10.028;2023-04-19T13:03:55;91590.56;;;10.29;71.98
63493;BME280;49638;47.526;10.028;2023-04-19T13:06:56;91604.75;;;10.23;71.83
63493;BME280;49638;47.526;10.028;2023-04-19T13:09:56;91601.22;;;10.17;71.74
63493;BME280;49638;47.526;10.028;2023-04-19T13:12:56;91593.06;;;10.02;71.92
63493;BME280;49638;47.526;10.028;2023-04-19T13:15:58;91595.97;;;10.00;71.98
63493;BME280;49638;47.526;10.028;2023-04-19T13:18:58;91596.88;;;9.89;72.21
63493;BME280;49638;47.526;10.028;2023-04-19T13:21:58;91596.28;;;9.87;72.70
63493;BME280;49638;47.526;10.028;2023-04-19T13:24:58;91591.97;;;9.81;73.09
63493;BME280;49638;47.526;10.028;2023-04-19T13:27:59;91590.06;;;9.76;73.51
63493;BME280;49638;47.526;10.028;2023-04-19T13:30:59;91582.06;;;9.71;73.90
63493;BME280;49638;47.526;10.028;2023-04-19T13:34:00;91574.56;;;9.63;74.19
63493;BME280;49638;47.526;10.028;2023-04-19T13:37:00;91573.44;;;9.59;73.92
63493;BME280;49638;47.526;10.028;2023-04-19T13:40:00;91559.69;;;9.57;73.51
63493;BME280;49638;47.526;10.028;2023-04-19T13:43:02;91568.97;;;9.59;73.26
63493;BME280;49638;47.526;10.028;2023-04-19T13:46:02;91563.28;;;9.51;73.49
63493;BME280;49638;47.526;10.028;2023-04-19T13:49:03;91564.91;;;9.52;73.54
63493;BME280;49638;47.526;10.028;2023-04-19T13:52:03;91557.31;;;9.55;73.69
63493;BME280;49638;47.526;10.028;2023-04-19T13:55:03;91556.50;;;9.55;73.94
63493;BME280;49638;47.526;10.028;2023-04-19T13:58:04;91545.84;;;9.50;74.60
63493;BME280;49638;47.526;10.028;2023-04-19T14:01:04;91550.81;;;9.63;75.14
63493;BME280;49638;47.526;10.028;2023-04-19T14:04:05;91533.94;;;9.64;74.93
63493;BME280;49638;47.526;10.028;2023-04-19T14:07:05;91542.78;;;9.75;75.15
63493;BME280;49638;47.526;10.028;2023-04-19T14:10:07;91531.38;;;9.69;75.00
63493;BME280;49638;47.526;10.028;2023-04-19T14:13:08;91538.34;;;9.75;75.20
63493;BME280;49638;47.526;10.028;2023-04-19T14:16:08;91539.84;;;9.71;75.85
63493;BME280;49638;47.526;10.028;2023-04-19T14:19:09;91535.28;;;9.66;75.78
63493;BME280;49638;47.526;10.028;2023-04-19T14:22:09;91527.31;;;9.61;76.07
63493;BME280;49638;47.526;10.028;2023-04-19T14:25:09;91535.03;;;9.68;75.84
63493;BME280;49638;47.526;10.028;2023-04-19T14:28:11;91536.19;;;9.72;76.02
63493;BME280;49638;47.526;10.028;2023-04-19T14:31:11;91514.28;;;9.55;76.42
63493;BME280;49638;47.526;10.028;2023-04-19T14:34:12;91526.81;;;9.47;77.07
63493;BME280;49638;47.526;10.028;2023-04-19T14:37:12;91531.31;;;9.47;77.45
63493;BME280;49638;47.526;10.028;2023-04-19T14:40:12;91521.38;;;9.37;77.88
63493;BME280;49638;47.526;10.028;2023-04-19T14:43:16;91530.81;;;9.33;78.57
63493;BME280;49638;47.526;10.028;2023-04-19T14:46:16;91524.84;;;9.21;78.22
63493;BME280;49638;47.526;10.028;2023-04-19T14:49:16;91527.72;;;9.19;78.61
63493;BME280;49638;47.526;10.028;2023-04-19T14:52:17;91513.00;;;9.07;79.09
63493;BME280;49638;47.526;10.028;2023-04-19T14:55:17;91516.19;;;9.09;79.24
63493;BME280;49638;47.526;10.028;2023-04-19T14:58:17;91507.19;;;9.05;79.54
63493;BME280;49638;47.526;10.028;2023-04-19T15:01:18;91500.53;;;9.02;79.69
63493;BME280;49638;47.526;10.028;2023-04-19T15:04:19;91509.34;;;9.08;79.78
63493;BME280;49638;47.526;10.028;2023-04-19T15:07:20;91498.94;;;9.01;80.00
63493;BME280;49638;47.526;10.028;2023-04-19T15:10:20;91505.34;;;9.05;80.04
63493;BME280;49638;47.526;10.028;2023-04-19T15:13:21;91504.91;;;8.96;80.25
63493;BME280;49638;47.526;10.028;2023-04-19T15:16:21;91497.84;;;8.97;79.77
63493;BME280;49638;47.526;10.028;2023-04-19T15:19:21;91512.66;;;9.03;79.10
63493;BME280;49638;47.526;10.028;2023-04-19T15:22:21;91511.34;;;9.00;78.70
63493;BME280;49638;47.526;10.028;2023-04-19T15:25:22;91506.22;;;8.94;78.29
63493;BME280;49638;47.526;10.028;2023-04-19T15:28:23;91507.88;;;8.83;78.68
63493;BME280;49638;47.526;10.028;2023-04-19T15:31:23;91510.72;;;8.82;79.36
63493;BME280;49638;47.526;10.028;2023-04-19T15:34:24;91497.84;;;8.68;79.48
63493;BME280;49638;47.526;10.028;2023-04-19T15:37:24;91511.34;;;8.72;80.20
63493;BME280;49638;47.526;10.028;2023-04-19T15:40:24;91513.91;;;8.67;81.04
63493;BME280;49638;47.526;10.028;2023-04-19T15:43:25;91504.69;;;8.52;81.79
63493;BME280;49638;47.526;10.028;2023-04-19T15:46:25;91514.06;;;8.60;82.42
63493;BME280;49638;47.526;10.028;2023-04-19T15:49:25;91512.69;;;8.58;82.73
63493;BME280;49638;47.526;10.028;2023-04-19T15:52:26;91505.78;;;8.40;84.10
63493;BME280;49638;47.526;10.028;2023-04-19T15:55:26;91509.06;;;8.35;84.06
63493;BME280;49638;47.526;10.028;2023-04-19T15:58:26;91497.13;;;8.16;84.70
63493;BME280;49638;47.526;10.028;2023-04-19T16:01:26;91509.03;;;8.06;84.87
63493;BME280;49638;47.526;10.028;2023-04-19T16:04:27;91495.56;;;7.91;85.31